sensor_id;sensor_type;location;lat;lon;timestamp;temperature;humidity
19665;DHT22;9980;51.020;7.772;2023-01-28T00:00:57;5.10;99.90
19665;DHT22;9980;51.020;7.772;2023-01-28T00:03:23;5.10;99.90
19665;DHT22;9980;51.020;7.772;2023-01-28T00:05:50;5.10;99.90
19665;DHT22;9980;51.020;7.772;2023-01-28T00:08:17;5.10;99.90
19665;DHT22;9980;51.020;7.772;2023-01-28T00:10:43;5.10;99.90
19665;DHT22;9980;51.020;7.772;2023-01-28T00:13:11;5.10;99.90
19665;DHT22;9980;51.020;7.772;2023-01-28T00:15:41;5.10;99.90
19665;DHT22;9980;51.020;7.772;2023-01-28T00:18:07;5.10;99.90
19665;DHT22;9980;51.020;7.772;2023-01-28T00:20:33;5.10;99.90
19665;DHT22;9980;51.020;7.772;2023-01-28T00:23:00;5.10;99.90
19665;DHT22;9980;51.020;7.772;2023-01-28T00:25:26;5.10;99.90
19665;DHT22;9980;51.020;7.772;2023-01-28T00:27:52;5.10;99.90
19665;DHT22;9980;51.020;7.772;2023-01-28T00:30:19;5.10;99.90
19665;DHT22;9980;51.020;7.772;2023-01-28T00:32:45;5.10;99.90
19665;DHT22;9980;51.020;7.772;2023-01-28T00:35:11;5.10;99.90
19665;DHT22;9980;51.020;7.772;2023-01-28T00:37:40;5.10;99.90
19665;DHT22;9980;51.020;7.772;2023-01-28T00:40:07;5.10;99.90
19665;DHT22;9980;51.020;7.772;2023-01-28T00:42:34;5.10;99.90
19665;DHT22;9980;51.020;7.772;2023-01-28T00:45:01;5.10;99.90
19665;DHT22;9980;51.020;7.772;2023-01-28T00:47:27;5.10;99.90
19665;DHT22;9980;51.020;7.772;2023-01-28T00:49:54;5.10;99.90
19665;DHT22;9980;51.020;7.772;2023-01-28T00:52:20;5.10;99.90
19665;DHT22;9980;51.020;7.772;2023-01-28T00:54:47;5.10;99.90
19665;DHT22;9980;51.020;7.772;2023-01-28T00:57:13;5.10;99.90
19665;DHT22;9980;51.020;7.772;2023-01-28T00:59:39;5.10;99.90
19665;DHT22;9980;51.020;7.772;2023-01-28T01:02:05;5.10;99.90
19665;DHT22;9980;51.020;7.772;2023-01-28T01:04:38;5.10;99.90
19665;DHT22;9980;51.020;7.772;2023-01-28T01:07:21;5.10;99.90
19665;DHT22;9980;51.020;7.772;2023-01-28T01:10:03;5.10;99.90
19665;DHT22;9980;51.020;7.772;2023-01-28T01:12:29;5.10;99.90
19665;DHT22;9980;51.020;7.772;2023-01-28T01:14:56;5.10;99.90
19665;DHT22;9980;51.020;7.772;2023-01-28T01:17:22;5.00;99.90
19665;DHT22;9980;51.020;7.772;2023-01-28T01:19:49;5.10;99.90
19665;DHT22;9980;51.020;7.772;2023-01-28T01:22:15;5.00;99.90
19665;DHT22;9980;51.020;7.772;2023-01-28T01:24:41;5.00;99.90
19665;DHT22;9980;51.020;7.772;2023-01-28T01:27:07;5.00;99.90
19665;DHT22;9980;51.020;7.772;2023-01-28T01:29:33;5.00;99.90
19665;DHT22;9980;51.020;7.772;2023-01-28T01:32:00;5.00;99.90
19665;DHT22;9980;51.020;7.772;2023-01-28T01:34:26;5.00;99.90
19665;DHT22;9980;51.020;7.772;2023-01-28T01:36:52;5.00;99.90
19665;DHT22;9980;51.020;7.772;2023-01-28T01:39:18;5.00;99.90
19665;DHT22;9980;51.020;7.772;2023-01-28T01:41:44;5.00;99.90
19665;DHT22;9980;51.020;7.772;2023-01-28T01:47:46;5.00;99.90
19665;DHT22;9980;51.020;7.772;2023-01-28T01:50:32;5.00;99.90
19665;DHT22;9980;51.020;7.772;2023-01-28T01:53:09;5.00;99.90
19665;DHT22;9980;51.020;7.772;2023-01-28T01:55:44;5.00;99.90
19665;DHT22;9980;51.020;7.772;2023-01-28T01:58:15;5.00;99.90
19665;DHT22;9980;51.020;7.772;2023-01-28T02:00:46;5.00;99.90
19665;DHT22;9980;51.020;7.772;2023-01-28T02:03:13;5.00;99.90
19665;DHT22;9980;51.020;7.772;2023-01-28T02:05:42;5.00;99.90
19665;DHT22;9980;51.020;7.772;2023-01-28T02:08:09;5.00;99.90
19665;DHT22;9980;51.020;7.772;2023-01-28T02:10:59;5.00;99.90
19665;DHT22;9980;51.020;7.772;2023-01-28T02:13:40;5.00;99.90
19665;DHT22;9980;51.020;7.772;2023-01-28T02:16:10;4.90;99.90
19665;DHT22;9980;51.020;7.772;2023-01-28T02:18:37;4.90;99.90
19665;DHT22;9980;51.020;7.772;2023-01-28T02:21:27;4.90;99.90
19665;DHT22;9980;51.020;7.772;2023-01-28T02:27:27;4.90;99.90
19665;DHT22;9980;51.020;7.772;2023-01-28T02:30:21;4.90;99.90
19665;DHT22;9980;51.020;7.772;2023-01-28T02:33:07;4.90;99.90
19665;DHT22;9980;51.020;7.772;2023-01-28T02:35:48;4.80;99.90
19665;DHT22;9980;51.020;7.772;2023-01-28T02:38:30;4.80;99.90
19665;DHT22;9980;51.020;7.772;2023-01-28T02:41:05;4.80;99.90
19665;DHT22;9980;51.020;7.772;2023-01-28T02:43:37;4.80;99.90
19665;DHT22;9980;51.020;7.772;2023-01-28T02:49:24;4.80;99.90
19665;DHT22;9980;51.020;7.772;2023-01-28T02:52:09;4.80;99.90
19665;DHT22;9980;51.020;7.772;2023-01-28T02:55:08;4.80;99.90
19665;DHT22;9980;51.020;7.772;2023-01-28T02:57:47;4.80;99.90
19665;DHT22;9980;51.020;7.772;2023-01-28T03:00:32;4.80;99.90
19665;DHT22;9980;51.020;7.772;2023-01-28T03:05:49;4.80;99.90
19665;DHT22;9980;51.020;7.772;2023-01-28T03:08:51;4.80;99.90
19665;DHT22;9980;51.020;7.772;2023-01-28T03:12:04;4.80;99.90
19665;DHT22;9980;51.020;7.772;2023-01-28T03:18:29;4.80;99.90
19665;DHT22;9980;51.020;7.772;2023-01-28T03:21:33;4.70;99.90
19665;DHT22;9980;51.020;7.772;2023-01-28T03:24:26;4.70;99.90
19665;DHT22;9980;51.020;7.772;2023-01-28T03:27:18;4.70;99.90
19665;DHT22;9980;51.020;7.772;2023-01-28T03:30:40;4.70;99.90
19665;DHT22;9980;51.020;7.772;2023-01-28T03:33:40;4.70;99.90
19665;DHT22;9980;51.020;7.772;2023-01-28T03:36:28;4.70;99.90
19665;DHT22;9980;51.020;7.772;2023-01-28T03:39:30;4.60;99.90
19665;DHT22;9980;51.020;7.772;2023-01-28T03:42:04;4.60;99.90
19665;DHT22;9980;51.020;7.772;2023-01-28T03:44:36;4.60;99.90
19665;DHT22;9980;51.020;7.772;2023-01-28T03:47:17;4.60;99.90
19665;DHT22;9980;51.020;7.772;2023-01-28T03:49:53;4.60;99.90
19665;DHT22;9980;51.020;7.772;2023-01-28T03:52:27;4.60;99.90
19665;DHT22;9980;51.020;7.772;2023-01-28T03:55:06;4.60;99.90
19665;DHT22;9980;51.020;7.772;2023-01-28T03:57:40;4.60;99.90
19665;DHT22;9980;51.020;7.772;2023-01-28T04:00:06;4.60;99.90
19665;DHT22;9980;51.020;7.772;2023-01-28T04:02:39;4.50;99.90
19665;DHT22;9980;51.020;7.772;2023-01-28T04:05:09;4.60;99.90
19665;DHT22;9980;51.020;7.772;2023-01-28T04:07:43;4.60;99.90
19665;DHT22;9980;51.020;7.772;2023-01-28T04:10:32;4.50;99.90
19665;DHT22;9980;51.020;7.772;2023-01-28T04:13:11;4.50;99.90
19665;DHT22;9980;51.020;7.772;2023-01-28T04:15:39;4.50;99.90
19665;DHT22;9980;51.020;7.772;2023-01-28T04:18:08;4.50;99.90
19665;DHT22;9980;51.020;7.772;2023-01-28T04:20:36;4.50;99.90
19665;DHT22;9980;51.020;7.772;2023-01-28T04:23:04;4.50;99.90
19665;DHT22;9980;51.020;7.772;2023-01-28T04:25:33;4.50;99.90
19665;DHT22;9980;51.020;7.772;2023-01-28T04:28:00;4.50;99.90
19665;DHT22;9980;51.020;7.772;2023-01-28T04:30:28;4.50;99.90
19665;DHT22;9980;51.020;7.772;2023-01-28T04:33:28;4.50;99.90
19665;DHT22;9980;51.020;7.772;2023-01-28T04:36:00;4.50;99.90
19665;DHT22;9980;51.020;7.772;2023-01-28T04:38:55;4.50;99.90
19665;DHT22;9980;51.020;7.772;2023-01-28T04:41:36;4.40;99.90
19665;DHT22;9980;51.020;7.772;2023-01-28T04:44:23;4.40;99.90
19665;DHT22;9980;51.020;7.772;2023-01-28T04:47:06;4.40;99.90
19665;DHT22;9980;51.020;7.772;2023-01-28T04:49:52;4.40;99.90
19665;DHT22;9980;51.020;7.772;2023-01-28T04:52:26;4.40;99.90
19665;DHT22;9980;51.020;7.772;2023-01-28T04:55:03;4.40;99.90
19665;DHT22;9980;51.020;7.772;2023-01-28T04:57:30;4.40;99.90
19665;DHT22;9980;51.020;7.772;2023-01-28T04:59:57;4.30;99.90
19665;DHT22;9980;51.020;7.772;2023-01-28T05:02:25;4.30;99.90
19665;DHT22;9980;51.020;7.772;2023-01-28T05:04:51;4.30;99.90
19665;DHT22;9980;51.020;7.772;2023-01-28T05:07:35;4.30;99.90
19665;DHT22;9980;51.020;7.772;2023-01-28T05:10:02;4.30;99.90
19665;DHT22;9980;51.020;7.772;2023-01-28T05:12:29;4.30;99.90
19665;DHT22;9980;51.020;7.772;2023-01-28T05:15:05;4.30;99.90
19665;DHT22;9980;51.020;7.772;2023-01-28T05:17:32;4.30;99.90
19665;DHT22;9980;51.020;7.772;2023-01-28T05:19:58;4.30;99.90
19665;DHT22;9980;51.020;7.772;2023-01-28T05:22:27;4.30;99.90
19665;DHT22;9980;51.020;7.772;2023-01-28T05:25:23;4.30;99.90
19665;DHT22;9980;51.020;7.772;2023-01-28T05:27:50;4.30;99.90
19665;DHT22;9980;51.020;7.772;2023-01-28T05:30:18;4.20;99.90
19665;DHT22;9980;51.020;7.772;2023-01-28T05:32:45;4.30;99.90
19665;DHT22;9980;51.020;7.772;2023-01-28T05:35:14;4.30;99.90
19665;DHT22;9980;51.020;7.772;2023-01-28T05:37:41;4.20;99.90
19665;DHT22;9980;51.020;7.772;2023-01-28T05:40:08;4.20;99.90
19665;DHT22;9980;51.020;7.772;2023-01-28T05:42:35;4.20;99.90
19665;DHT22;9980;51.020;7.772;2023-01-28T05:45:19;4.20;99.90
19665;DHT22;9980;51.020;7.772;2023-01-28T05:48:06;4.20;99.90
19665;DHT22;9980;51.020;7.772;2023-01-28T05:50:51;4.20;99.90
19665;DHT22;9980;51.020;7.772;2023-01-28T05:53:30;4.20;99.90
19665;DHT22;9980;51.020;7.772;2023-01-28T05:55:57;4.20;99.90
19665;DHT22;9980;51.020;7.772;2023-01-28T05:58:23;4.20;99.90
19665;DHT22;9980;51.020;7.772;2023-01-28T06:00:49;4.10;99.90
19665;DHT22;9980;51.020;7.772;2023-01-28T06:03:25;4.20;99.90
19665;DHT22;9980;51.020;7.772;2023-01-28T06:05:51;4.10;99.90
19665;DHT22;9980;51.020;7.772;2023-01-28T06:08:18;4.10;99.90
19665;DHT22;9980;51.020;7.772;2023-01-28T06:10:45;4.10;99.90
19665;DHT22;9980;51.020;7.772;2023-01-28T06:13:14;4.10;99.90
19665;DHT22;9980;51.020;7.772;2023-01-28T06:15:59;4.10;99.90
19665;DHT22;9980;51.020;7.772;2023-01-28T06:18:37;4.10;99.90
19665;DHT22;9980;51.020;7.772;2023-01-28T06:21:03;4.10;99.90
19665;DHT22;9980;51.020;7.772;2023-01-28T06:23:29;4.10;99.90
19665;DHT22;9980;51.020;7.772;2023-01-28T06:25:56;4.10;99.90
19665;DHT22;9980;51.020;7.772;2023-01-28T06:28:23;4.10;99.90
19665;DHT22;9980;51.020;7.772;2023-01-28T06:30:51;4.10;99.90
19665;DHT22;9980;51.020;7.772;2023-01-28T06:33:19;4.10;99.90
19665;DHT22;9980;51.020;7.772;2023-01-28T06:35:46;4.10;99.90
19665;DHT22;9980;51.020;7.772;2023-01-28T06:38:13;4.10;99.90
19665;DHT22;9980;51.020;7.772;2023-01-28T06:40:39;4.10;99.90
19665;DHT22;9980;51.020;7.772;2023-01-28T06:43:06;4.10;99.90
19665;DHT22;9980;51.020;7.772;2023-01-28T06:45:32;4.10;99.90
19665;DHT22;9980;51.020;7.772;2023-01-28T06:47:58;4.10;99.90
19665;DHT22;9980;51.020;7.772;2023-01-28T06:50:25;4.10;99.90
19665;DHT22;9980;51.020;7.772;2023-01-28T06:52:51;4.10;99.90
19665;DHT22;9980;51.020;7.772;2023-01-28T06:55:17;4.10;99.90
19665;DHT22;9980;51.020;7.772;2023-01-28T06:57:44;4.10;99.90
19665;DHT22;9980;51.020;7.772;2023-01-28T07:00:11;4.00;99.90
19665;DHT22;9980;51.020;7.772;2023-01-28T07:02:40;4.00;99.90
19665;DHT22;9980;51.020;7.772;2023-01-28T07:05:07;4.00;99.90
19665;DHT22;9980;51.020;7.772;2023-01-28T07:07:34;4.00;99.90
19665;DHT22;9980;51.020;7.772;2023-01-28T07:10:00;4.00;99.90
19665;DHT22;9980;51.020;7.772;2023-01-28T07:12:26;4.00;99.90
19665;DHT22;9980;51.020;7.772;2023-01-28T07:14:52;4.00;99.90
19665;DHT22;9980;51.020;7.772;2023-01-28T07:17:19;4.00;99.90
19665;DHT22;9980;51.020;7.772;2023-01-28T07:19:48;4.00;99.90
19665;DHT22;9980;51.020;7.772;2023-01-28T07:22:15;4.00;99.90
19665;DHT22;9980;51.020;7.772;2023-01-28T07:24:42;4.00;99.90
19665;DHT22;9980;51.020;7.772;2023-01-28T07:27:08;4.00;99.90
19665;DHT22;9980;51.020;7.772;2023-01-28T07:29:40;4.00;99.90
19665;DHT22;9980;51.020;7.772;2023-01-28T07:32:09;3.90;99.90
19665;DHT22;9980;51.020;7.772;2023-01-28T07:34:36;3.90;99.90
19665;DHT22;9980;51.020;7.772;2023-01-28T07:37:04;3.90;99.90
19665;DHT22;9980;51.020;7.772;2023-01-28T07:39:31;3.80;99.90
19665;DHT22;9980;51.020;7.772;2023-01-28T07:42:01;3.80;99.90
19665;DHT22;9980;51.020;7.772;2023-01-28T07:44:37;3.80;99.90
19665;DHT22;9980;51.020;7.772;2023-01-28T07:47:05;3.80;99.90
19665;DHT22;9980;51.020;7.772;2023-01-28T07:49:34;3.80;99.90
19665;DHT22;9980;51.020;7.772;2023-01-28T07:52:05;3.80;99.90
19665;DHT22;9980;51.020;7.772;2023-01-28T07:54:33;3.80;99.90
19665;DHT22;9980;51.020;7.772;2023-01-28T07:57:00;3.80;99.90
19665;DHT22;9980;51.020;7.772;2023-01-28T07:59:27;3.80;99.90
19665;DHT22;9980;51.020;7.772;2023-01-28T08:01:53;3.80;99.90
19665;DHT22;9980;51.020;7.772;2023-01-28T08:04:21;3.80;99.90
19665;DHT22;9980;51.020;7.772;2023-01-28T08:06:48;3.80;99.90
19665;DHT22;9980;51.020;7.772;2023-01-28T08:09:14;3.80;99.90
19665;DHT22;9980;51.020;7.772;2023-01-28T08:11:40;3.90;99.90
19665;DHT22;9980;51.020;7.772;2023-01-28T08:14:08;3.90;99.90
19665;DHT22;9980;51.020;7.772;2023-01-28T08:16:35;3.90;99.90
19665;DHT22;9980;51.020;7.772;2023-01-28T08:19:01;3.90;99.90
19665;DHT22;9980;51.020;7.772;2023-01-28T08:21:28;4.00;99.90
19665;DHT22;9980;51.020;7.772;2023-01-28T08:24:00;3.90;99.90
19665;DHT22;9980;51.020;7.772;2023-01-28T08:26:33;3.90;99.90
19665;DHT22;9980;51.020;7.772;2023-01-28T08:29:00;4.00;99.90
19665;DHT22;9980;51.020;7.772;2023-01-28T08:31:27;4.00;99.90
19665;DHT22;9980;51.020;7.772;2023-01-28T08:33:54;4.00;99.90
19665;DHT22;9980;51.020;7.772;2023-01-28T08:36:21;4.00;99.90
19665;DHT22;9980;51.020;7.772;2023-01-28T08:38:52;4.00;99.90
19665;DHT22;9980;51.020;7.772;2023-01-28T08:41:21;4.10;99.90
19665;DHT22;9980;51.020;7.772;2023-01-28T08:43:47;4.10;99.90
19665;DHT22;9980;51.020;7.772;2023-01-28T08:46:14;4.10;99.90
19665;DHT22;9980;51.020;7.772;2023-01-28T08:48:41;4.10;99.90
19665;DHT22;9980;51.020;7.772;2023-01-28T08:51:08;4.10;99.90
19665;DHT22;9980;51.020;7.772;2023-01-28T08:53:34;4.10;99.90
19665;DHT22;9980;51.020;7.772;2023-01-28T08:56:00;4.10;99.90
19665;DHT22;9980;51.020;7.772;2023-01-28T08:58:27;4.10;99.90
19665;DHT22;9980;51.020;7.772;2023-01-28T09:00:53;4.10;99.90
19665;DHT22;9980;51.020;7.772;2023-01-28T09:03:19;4.20;99.90
19665;DHT22;9980;51.020;7.772;2023-01-28T09:05:46;4.20;99.90
19665;DHT22;9980;51.020;7.772;2023-01-28T09:08:14;4.20;99.90
19665;DHT22;9980;51.020;7.772;2023-01-28T09:10:42;4.20;99.90
19665;DHT22;9980;51.020;7.772;2023-01-28T09:13:14;4.20;99.90
19665;DHT22;9980;51.020;7.772;2023-01-28T09:15:41;4.30;99.90
19665;DHT22;9980;51.020;7.772;2023-01-28T09:18:08;4.30;99.90
19665;DHT22;9980;51.020;7.772;2023-01-28T09:20:34;4.30;99.90
19665;DHT22;9980;51.020;7.772;2023-01-28T09:23:02;4.30;99.90
19665;DHT22;9980;51.020;7.772;2023-01-28T09:25:28;4.40;99.90
19665;DHT22;9980;51.020;7.772;2023-01-28T09:27:56;4.40;99.90
19665;DHT22;9980;51.020;7.772;2023-01-28T09:30:23;4.40;99.90
19665;DHT22;9980;51.020;7.772;2023-01-28T09:32:50;4.40;99.80
19665;DHT22;9980;51.020;7.772;2023-01-28T09:35:20;4.40;99.70
19665;DHT22;9980;51.020;7.772;2023-01-28T09:37:47;4.40;99.80
19665;DHT22;9980;51.020;7.772;2023-01-28T09:40:19;4.50;99.70
19665;DHT22;9980;51.020;7.772;2023-01-28T09:45:48;4.50;99.50
19665;DHT22;9980;51.020;7.772;2023-01-28T09:48:19;4.50;99.60
19665;DHT22;9980;51.020;7.772;2023-01-28T09:50:53;4.50;99.50
19665;DHT22;9980;51.020;7.772;2023-01-28T09:53:33;4.50;99.50
19665;DHT22;9980;51.020;7.772;2023-01-28T09:56:15;4.50;99.50
19665;DHT22;9980;51.020;7.772;2023-01-28T09:58:50;4.50;99.40
19665;DHT22;9980;51.020;7.772;2023-01-28T10:04:25;4.50;99.80
19665;DHT22;9980;51.020;7.772;2023-01-28T10:10:21;4.50;99.30
19665;DHT22;9980;51.020;7.772;2023-01-28T10:15:50;4.60;99.40
19665;DHT22;9980;51.020;7.772;2023-01-28T10:21:26;4.60;99.30
19665;DHT22;9980;51.020;7.772;2023-01-28T10:24:10;4.60;99.30
19665;DHT22;9980;51.020;7.772;2023-01-28T10:26:41;4.60;99.30
19665;DHT22;9980;51.020;7.772;2023-01-28T10:29:19;4.60;99.20
19665;DHT22;9980;51.020;7.772;2023-01-28T10:31:53;4.60;99.20
19665;DHT22;9980;51.020;7.772;2023-01-28T10:34:24;4.60;99.30
19665;DHT22;9980;51.020;7.772;2023-01-28T10:36:51;4.50;99.10
19665;DHT22;9980;51.020;7.772;2023-01-28T10:39:21;4.60;99.00
19665;DHT22;9980;51.020;7.772;2023-01-28T10:41:47;4.60;99.10
19665;DHT22;9980;51.020;7.772;2023-01-28T10:44:37;4.50;99.10
19665;DHT22;9980;51.020;7.772;2023-01-28T10:47:15;4.50;98.90
19665;DHT22;9980;51.020;7.772;2023-01-28T10:49:50;4.50;98.70
19665;DHT22;9980;51.020;7.772;2023-01-28T10:52:22;4.60;99.00
19665;DHT22;9980;51.020;7.772;2023-01-28T10:55:02;4.60;99.10
19665;DHT22;9980;51.020;7.772;2023-01-28T10:57:32;4.60;99.30
19665;DHT22;9980;51.020;7.772;2023-01-28T11:00:27;4.60;99.30
19665;DHT22;9980;51.020;7.772;2023-01-28T11:02:56;4.60;98.90
19665;DHT22;9980;51.020;7.772;2023-01-28T11:05:26;4.60;98.90
19665;DHT22;9980;51.020;7.772;2023-01-28T11:08:12;4.60;98.90
19665;DHT22;9980;51.020;7.772;2023-01-28T11:10:41;4.60;98.60
19665;DHT22;9980;51.020;7.772;2023-01-28T11:13:19;4.60;98.90
19665;DHT22;9980;51.020;7.772;2023-01-28T11:16:14;4.60;98.70
19665;DHT22;9980;51.020;7.772;2023-01-28T11:18:52;4.60;98.70
19665;DHT22;9980;51.020;7.772;2023-01-28T11:21:25;4.60;98.90
19665;DHT22;9980;51.020;7.772;2023-01-28T11:24:04;4.60;98.90
19665;DHT22;9980;51.020;7.772;2023-01-28T11:26:43;4.70;98.70
19665;DHT22;9980;51.020;7.772;2023-01-28T11:29:25;4.70;98.80
19665;DHT22;9980;51.020;7.772;2023-01-28T11:31:56;4.70;98.60
19665;DHT22;9980;51.020;7.772;2023-01-28T11:34:29;4.70;98.70
19665;DHT22;9980;51.020;7.772;2023-01-28T11:37:14;4.80;98.80
19665;DHT22;9980;51.020;7.772;2023-01-28T11:39:41;4.80;98.50
19665;DHT22;9980;51.020;7.772;2023-01-28T11:42:16;4.80;98.40
19665;DHT22;9980;51.020;7.772;2023-01-28T11:44:44;4.80;98.10
19665;DHT22;9980;51.020;7.772;2023-01-28T11:50:04;4.90;98.20
19665;DHT22;9980;51.020;7.772;2023-01-28T11:58:48;4.90;98.20
19665;DHT22;9980;51.020;7.772;2023-01-28T12:01:51;4.90;98.00
19665;DHT22;9980;51.020;7.772;2023-01-28T12:08:16;4.90;98.30
19665;DHT22;9980;51.020;7.772;2023-01-28T12:25:20;4.90;98.20
19665;DHT22;9980;51.020;7.772;2023-01-28T12:43:26;4.90;97.50
19665;DHT22;9980;51.020;7.772;2023-01-28T12:46:11;4.90;97.70
19665;DHT22;9980;51.020;7.772;2023-01-28T12:51:45;4.80;97.50
19665;DHT22;9980;51.020;7.772;2023-01-28T12:55:14;4.80;97.50
19665;DHT22;9980;51.020;7.772;2023-01-28T12:57:26;4.80;97.70
19665;DHT22;9980;51.020;7.772;2023-01-28T13:06:40;4.80;97.60
19665;DHT22;9980;51.020;7.772;2023-01-28T13:08:56;4.90;97.80
19665;DHT22;9980;51.020;7.772;2023-01-28T13:11:33;4.80;97.70
19665;DHT22;9980;51.020;7.772;2023-01-28T13:14:02;4.80;97.60
19665;DHT22;9980;51.020;7.772;2023-01-28T13:16:30;4.90;97.80
19665;DHT22;9980;51.020;7.772;2023-01-28T13:21:43;4.80;97.40
19665;DHT22;9980;51.020;7.772;2023-01-28T13:26:44;4.80;97.50
19665;DHT22;9980;51.020;7.772;2023-01-28T13:31:57;4.80;97.40
19665;DHT22;9980;51.020;7.772;2023-01-28T13:34:35;4.90;97.40
19665;DHT22;9980;51.020;7.772;2023-01-28T13:42:37;4.90;97.90
19665;DHT22;9980;51.020;7.772;2023-01-28T13:47:46;5.00;97.50
19665;DHT22;9980;51.020;7.772;2023-01-28T13:50:19;5.00;97.50
19665;DHT22;9980;51.020;7.772;2023-01-28T13:53:01;5.00;97.60
19665;DHT22;9980;51.020;7.772;2023-01-28T13:55:37;5.00;97.60
19665;DHT22;9980;51.020;7.772;2023-01-28T14:01:51;5.10;97.70
19665;DHT22;9980;51.020;7.772;2023-01-28T14:04:50;5.20;97.70
19665;DHT22;9980;51.020;7.772;2023-01-28T14:11:45;5.20;97.50
19665;DHT22;9980;51.020;7.772;2023-01-28T14:14:25;5.30;97.20
19665;DHT22;9980;51.020;7.772;2023-01-28T14:17:13;5.30;97.30
19665;DHT22;9980;51.020;7.772;2023-01-28T14:19:49;5.30;97.40
19665;DHT22;9980;51.020;7.772;2023-01-28T14:22:21;5.30;97.30
19665;DHT22;9980;51.020;7.772;2023-01-28T14:24:48;5.30;97.20
19665;DHT22;9980;51.020;7.772;2023-01-28T14:30:15;5.30;97.20
19665;DHT22;9980;51.020;7.772;2023-01-28T14:32:51;5.30;97.20
19665;DHT22;9980;51.020;7.772;2023-01-28T14:35:30;5.40;97.30
19665;DHT22;9980;51.020;7.772;2023-01-28T14:37:59;5.40;97.00
19665;DHT22;9980;51.020;7.772;2023-01-28T14:40:36;5.40;96.90
19665;DHT22;9980;51.020;7.772;2023-01-28T14:43:06;5.40;97.20
19665;DHT22;9980;51.020;7.772;2023-01-28T14:45:55;5.40;97.00
19665;DHT22;9980;51.020;7.772;2023-01-28T14:54:24;5.30;96.80
19665;DHT22;9980;51.020;7.772;2023-01-28T14:57:42;5.30;97.00
19665;DHT22;9980;51.020;7.772;2023-01-28T15:00:18;5.30;96.70
19665;DHT22;9980;51.020;7.772;2023-01-28T15:02:49;5.20;96.70
19665;DHT22;9980;51.020;7.772;2023-01-28T15:05:24;5.20;96.70
19665;DHT22;9980;51.020;7.772;2023-01-28T15:07:53;5.20;96.80
19665;DHT22;9980;51.020;7.772;2023-01-28T15:10:26;5.10;96.70
19665;DHT22;9980;51.020;7.772;2023-01-28T15:13:08;5.10;96.40
19665;DHT22;9980;51.020;7.772;2023-01-28T15:15:40;5.00;96.60
19665;DHT22;9980;51.020;7.772;2023-01-28T15:18:18;5.00;96.60
19665;DHT22;9980;51.020;7.772;2023-01-28T15:20:52;4.90;96.80
19665;DHT22;9980;51.020;7.772;2023-01-28T15:23:33;4.90;96.80
19665;DHT22;9980;51.020;7.772;2023-01-28T15:26:16;4.90;96.70
19665;DHT22;9980;51.020;7.772;2023-01-28T15:28:47;4.90;96.80
19665;DHT22;9980;51.020;7.772;2023-01-28T15:31:24;4.90;96.80
19665;DHT22;9980;51.020;7.772;2023-01-28T15:34:15;4.80;96.80
19665;DHT22;9980;51.020;7.772;2023-01-28T15:36:44;4.80;96.80
19665;DHT22;9980;51.020;7.772;2023-01-28T15:39:18;4.80;97.00
19665;DHT22;9980;51.020;7.772;2023-01-28T15:41:53;4.70;96.80
19665;DHT22;9980;51.020;7.772;2023-01-28T15:44:37;4.70;96.90
19665;DHT22;9980;51.020;7.772;2023-01-28T15:47:28;4.60;96.80
19665;DHT22;9980;51.020;7.772;2023-01-28T15:50:03;4.60;96.90
19665;DHT22;9980;51.020;7.772;2023-01-28T15:52:37;4.60;96.90
19665;DHT22;9980;51.020;7.772;2023-01-28T15:55:07;4.50;97.00
19665;DHT22;9980;51.020;7.772;2023-01-28T15:57:55;4.40;97.10
19665;DHT22;9980;51.020;7.772;2023-01-28T16:00:22;4.40;97.20
19665;DHT22;9980;51.020;7.772;2023-01-28T16:02:53;4.30;97.20
19665;DHT22;9980;51.020;7.772;2023-01-28T16:05:40;4.20;97.20
19665;DHT22;9980;51.020;7.772;2023-01-28T16:08:11;4.20;97.20
19665;DHT22;9980;51.020;7.772;2023-01-28T16:10:51;4.10;97.30
19665;DHT22;9980;51.020;7.772;2023-01-28T16:13:21;4.00;97.30
19665;DHT22;9980;51.020;7.772;2023-01-28T16:15:53;4.00;97.40
19665;DHT22;9980;51.020;7.772;2023-01-28T16:21:35;3.80;97.40
19665;DHT22;9980;51.020;7.772;2023-01-28T16:24:50;3.80;97.50
19665;DHT22;9980;51.020;7.772;2023-01-28T16:27:26;3.70;97.50
19665;DHT22;9980;51.020;7.772;2023-01-28T16:29:54;3.60;97.60
19665;DHT22;9980;51.020;7.772;2023-01-28T16:32:27;3.60;97.60
19665;DHT22;9980;51.020;7.772;2023-01-28T16:35:03;3.50;97.60
19665;DHT22;9980;51.020;7.772;2023-01-28T16:37:53;3.40;97.60
19665;DHT22;9980;51.020;7.772;2023-01-28T16:40:23;3.40;97.70
19665;DHT22;9980;51.020;7.772;2023-01-28T16:42:53;3.30;97.60
19665;DHT22;9980;51.020;7.772;2023-01-28T16:45:22;3.30;97.70
19665;DHT22;9980;51.020;7.772;2023-01-28T16:47:50;3.20;97.80
19665;DHT22;9980;51.020;7.772;2023-01-28T16:50:18;3.20;97.90
19665;DHT22;9980;51.020;7.772;2023-01-28T16:52:48;3.10;98.00
19665;DHT22;9980;51.020;7.772;2023-01-28T16:55:18;3.10;98.10
19665;DHT22;9980;51.020;7.772;2023-01-28T16:57:48;3.10;98.10
19665;DHT22;9980;51.020;7.772;2023-01-28T17:00:19;3.00;98.20
19665;DHT22;9980;51.020;7.772;2023-01-28T17:02:49;3.00;98.60
19665;DHT22;9980;51.020;7.772;2023-01-28T17:05:16;3.00;98.40
19665;DHT22;9980;51.020;7.772;2023-01-28T17:07:45;3.00;98.50
19665;DHT22;9980;51.020;7.772;2023-01-28T17:10:16;3.00;98.60
19665;DHT22;9980;51.020;7.772;2023-01-28T17:12:43;3.00;98.70
19665;DHT22;9980;51.020;7.772;2023-01-28T17:15:10;2.90;98.80
19665;DHT22;9980;51.020;7.772;2023-01-28T17:17:36;2.90;98.90
19665;DHT22;9980;51.020;7.772;2023-01-28T17:20:03;3.00;99.00
19665;DHT22;9980;51.020;7.772;2023-01-28T17:22:30;3.00;99.10
19665;DHT22;9980;51.020;7.772;2023-01-28T17:24:58;3.00;99.10
19665;DHT22;9980;51.020;7.772;2023-01-28T17:27:24;3.00;99.20
19665;DHT22;9980;51.020;7.772;2023-01-28T17:29:51;3.00;99.20
19665;DHT22;9980;51.020;7.772;2023-01-28T17:32:18;3.00;99.20
19665;DHT22;9980;51.020;7.772;2023-01-28T17:34:46;3.00;99.20
19665;DHT22;9980;51.020;7.772;2023-01-28T17:37:13;3.00;99.30
19665;DHT22;9980;51.020;7.772;2023-01-28T17:39:39;3.00;99.30
19665;DHT22;9980;51.020;7.772;2023-01-28T17:42:05;3.00;99.20
19665;DHT22;9980;51.020;7.772;2023-01-28T17:44:31;3.00;99.10
19665;DHT22;9980;51.020;7.772;2023-01-28T17:46:58;3.00;99.20
19665;DHT22;9980;51.020;7.772;2023-01-28T17:49:24;3.00;99.20
19665;DHT22;9980;51.020;7.772;2023-01-28T17:51:50;3.00;99.20
19665;DHT22;9980;51.020;7.772;2023-01-28T17:54:18;3.00;99.20
19665;DHT22;9980;51.020;7.772;2023-01-28T17:56:44;3.00;99.30
19665;DHT22;9980;51.020;7.772;2023-01-28T17:59:10;3.00;99.30
19665;DHT22;9980;51.020;7.772;2023-01-28T18:01:43;3.00;99.30
19665;DHT22;9980;51.020;7.772;2023-01-28T18:04:10;2.90;99.30
19665;DHT22;9980;51.020;7.772;2023-01-28T18:06:37;2.90;99.30
19665;DHT22;9980;51.020;7.772;2023-01-28T18:09:04;2.90;99.30
19665;DHT22;9980;51.020;7.772;2023-01-28T18:11:31;2.90;99.60
19665;DHT22;9980;51.020;7.772;2023-01-28T18:13:58;2.90;99.30
19665;DHT22;9980;51.020;7.772;2023-01-28T18:16:24;2.80;99.30
19665;DHT22;9980;51.020;7.772;2023-01-28T18:18:50;2.80;99.30
19665;DHT22;9980;51.020;7.772;2023-01-28T18:21:33;2.80;99.30
19665;DHT22;9980;51.020;7.772;2023-01-28T18:24:17;2.70;99.30
19665;DHT22;9980;51.020;7.772;2023-01-28T18:26:44;2.70;99.30
19665;DHT22;9980;51.020;7.772;2023-01-28T18:29:10;2.70;99.30
19665;DHT22;9980;51.020;7.772;2023-01-28T18:31:41;2.60;99.30
19665;DHT22;9980;51.020;7.772;2023-01-28T18:34:07;2.60;99.20
19665;DHT22;9980;51.020;7.772;2023-01-28T18:36:33;2.60;99.20
19665;DHT22;9980;51.020;7.772;2023-01-28T18:39:00;2.50;99.20